createdAt,value
2018-11-23T00:01:20.868Z,99.90
2018-11-23T00:03:52.535Z,99.90
2018-11-23T00:06:22.677Z,99.90
2018-11-23T00:09:15.703Z,99.90
2018-11-23T00:12:27.775Z,99.90
2018-11-23T00:14:58.486Z,99.90
2018-11-23T00:17:27.878Z,99.90
2018-11-23T00:19:57.211Z,99.90
2018-11-23T00:22:26.644Z,99.90
2018-11-23T00:24:57.256Z,99.90
2018-11-23T00:27:29.195Z,99.90
2018-11-23T00:30:03.273Z,99.90
2018-11-23T00:32:33.528Z,99.90
2018-11-23T00:35:03.484Z,99.90
2018-11-23T00:37:33.513Z,99.90
2018-11-23T00:40:03.618Z,99.90
2018-11-23T00:42:32.960Z,99.90
2018-11-23T00:45:02.419Z,99.90
2018-11-23T00:47:33.089Z,99.90
2018-11-23T00:50:02.732Z,99.90
2018-11-23T00:52:32.140Z,99.90
2018-11-23T00:55:02.838Z,99.90
2018-11-23T00:57:32.303Z,99.90
2018-11-23T01:00:01.731Z,99.90
2018-11-23T01:02:32.125Z,99.90
2018-11-23T01:05:02.048Z,99.90
2018-11-23T01:07:31.506Z,99.90
2018-11-23T01:10:01.092Z,99.90
2018-11-23T01:12:30.533Z,99.90
2018-11-23T01:15:00.884Z,99.90
2018-11-23T01:17:30.365Z,99.90
2018-11-23T01:19:59.894Z,99.90
2018-11-23T01:22:29.301Z,99.90
2018-11-23T01:24:59.024Z,99.90
2018-11-23T01:27:38.232Z,99.90
2018-11-23T01:30:13.190Z,99.90
2018-11-23T01:32:43.025Z,99.90
2018-11-23T01:35:15.125Z,99.90
2018-11-23T01:37:46.339Z,99.90
2018-11-23T01:40:18.624Z,99.90
2018-11-23T01:42:48.428Z,99.90
2018-11-23T01:45:18.334Z,99.90
2018-11-23T01:47:47.977Z,99.90
2018-11-23T01:50:21.507Z,99.90
2018-11-23T01:53:08.941Z,99.90
2018-11-23T01:55:38.534Z,99.90
2018-11-23T01:58:08.604Z,99.90
2018-11-23T02:00:38.142Z,99.90
2018-11-23T02:03:07.985Z,99.90
2018-11-23T02:05:37.699Z,99.90
2018-11-23T02:08:09.397Z,99.90
2018-11-23T02:10:39.007Z,99.90
2018-11-23T02:13:10.638Z,99.90
2018-11-23T02:15:42.541Z,99.90
2018-11-23T02:18:11.860Z,99.90
2018-11-23T02:20:42.141Z,99.90
2018-11-23T02:23:11.665Z,99.90
2018-11-23T02:25:43.813Z,99.90
2018-11-23T02:28:13.429Z,99.90
2018-11-23T02:30:43.060Z,99.90
2018-11-23T02:33:12.807Z,99.90
2018-11-23T02:35:42.319Z,99.90
2018-11-23T02:38:13.995Z,99.90
2018-11-23T02:40:43.295Z,99.90
2018-11-23T02:43:12.588Z,99.90
2018-11-23T02:45:42.834Z,99.90
2018-11-23T02:48:12.217Z,99.90
2018-11-23T02:50:42.517Z,99.90
2018-11-23T02:53:11.928Z,99.90
2018-11-23T02:55:41.291Z,99.90
2018-11-23T02:58:10.585Z,99.90
2018-11-23T03:00:40.652Z,99.90
2018-11-23T03:03:10.426Z,99.90
2018-11-23T03:05:40.456Z,99.90
2018-11-23T03:08:09.795Z,99.90
2018-11-23T03:10:39.067Z,99.90
2018-11-23T03:13:08.364Z,99.90
2018-11-23T03:15:49.642Z,99.90
2018-11-23T03:18:26.978Z,99.90
2018-11-23T03:20:56.303Z,99.90
2018-11-23T03:23:25.601Z,99.90
2018-11-23T03:25:55.060Z,99.90
2018-11-23T03:28:24.387Z,99.90
2018-11-23T03:30:53.696Z,99.90
2018-11-23T03:33:22.987Z,99.90
2018-11-23T03:35:52.754Z,99.90
2018-11-23T03:38:22.022Z,99.90
2018-11-23T03:40:51.482Z,99.90
2018-11-23T03:43:20.887Z,99.90
2018-11-23T03:45:50.417Z,99.90
2018-11-23T03:48:20.514Z,99.90
2018-11-23T03:50:49.962Z,99.90
2018-11-23T03:53:19.442Z,99.90
2018-11-23T03:55:48.903Z,99.90
2018-11-23T03:58:18.271Z,99.90
2018-11-23T04:00:47.601Z,99.90
2018-11-23T04:03:17.191Z,99.90
2018-11-23T04:05:46.903Z,99.90
2018-11-23T04:08:16.166Z,99.90
2018-11-23T04:10:46.020Z,99.90
2018-11-23T04:13:15.276Z,99.90
2018-11-23T04:15:44.754Z,99.90
2018-11-23T04:18:15.373Z,99.90
2018-11-23T04:21:01.300Z,99.90
2018-11-23T04:23:32.268Z,99.90
2018-11-23T04:26:02.016Z,99.90
2018-11-23T04:28:31.346Z,99.90
2018-11-23T04:31:00.722Z,99.90
2018-11-23T04:33:30.046Z,99.90
2018-11-23T04:35:59.330Z,99.90
2018-11-23T04:38:28.709Z,99.90
2018-11-23T04:40:57.998Z,99.90
2018-11-23T04:43:27.373Z,99.90
2018-11-23T04:45:56.732Z,99.90
2018-11-23T04:48:26.066Z,99.90
2018-11-23T04:50:55.315Z,99.90
2018-11-23T04:53:26.001Z,99.90
2018-11-23T04:55:55.831Z,99.90
2018-11-23T04:58:25.428Z,99.90
2018-11-23T05:00:56.023Z,99.90
2018-11-23T05:03:26.027Z,99.90
2018-11-23T05:05:55.899Z,99.90
2018-11-23T05:08:25.784Z,99.90
2018-11-23T05:10:56.725Z,99.90
2018-11-23T05:13:26.964Z,99.90
2018-11-23T05:15:56.351Z,99.90
2018-11-23T05:18:26.538Z,99.90
2018-11-23T05:20:56.332Z,99.90
2018-11-23T05:23:26.559Z,99.90
2018-11-23T05:25:55.911Z,99.90
2018-11-23T05:28:26.122Z,99.90
2018-11-23T05:30:55.519Z,99.90
2018-11-23T05:33:24.824Z,99.90
2018-11-23T05:35:54.348Z,99.90
2018-11-23T05:38:23.746Z,99.90
2018-11-23T05:40:53.163Z,99.90
2018-11-23T05:43:23.099Z,99.90
2018-11-23T05:45:53.514Z,99.90
2018-11-23T05:48:26.790Z,99.90
2018-11-23T05:50:52.380Z,99.90
2018-11-23T05:53:21.772Z,99.90
2018-11-23T05:55:52.036Z,99.90
2018-11-23T05:58:23.578Z,99.90
2018-11-23T06:00:53.664Z,99.90
2018-11-23T06:03:23.969Z,99.90
2018-11-23T06:05:53.618Z,99.90
2018-11-23T06:08:22.906Z,99.90
2018-11-23T06:10:52.461Z,99.90
2018-11-23T06:13:21.811Z,99.90
2018-11-23T06:15:51.375Z,99.90
2018-11-23T06:18:20.760Z,99.90
2018-11-23T06:20:50.173Z,99.90
2018-11-23T06:23:19.861Z,99.90
2018-11-23T06:25:53.975Z,99.90
2018-11-23T06:28:23.521Z,99.90
2018-11-23T06:30:53.023Z,99.90
2018-11-23T06:33:40.889Z,99.90
2018-11-23T06:36:10.258Z,99.90
2018-11-23T06:38:40.158Z,99.90
2018-11-23T06:41:10.736Z,99.90
2018-11-23T06:43:39.751Z,99.90
2018-11-23T06:46:10.491Z,99.90
2018-11-23T06:48:40.935Z,99.90
2018-11-23T06:51:10.360Z,99.90
2018-11-23T06:53:46.554Z,99.90
2018-11-23T06:56:16.139Z,99.90
2018-11-23T06:58:45.872Z,99.90
2018-11-23T07:01:16.011Z,99.90
2018-11-23T07:03:45.395Z,99.90
2018-11-23T07:06:15.547Z,99.90
2018-11-23T07:08:45.046Z,99.90
2018-11-23T07:11:14.562Z,99.90
2018-11-23T07:13:51.610Z,99.90
2018-11-23T07:16:22.230Z,99.90
2018-11-23T07:18:51.941Z,99.90
2018-11-23T07:21:21.649Z,99.90
2018-11-23T07:23:53.967Z,99.90
2018-11-23T07:26:24.057Z,99.90
2018-11-23T07:28:54.904Z,99.90
2018-11-23T07:31:26.080Z,99.90
2018-11-23T07:33:55.777Z,99.90
2018-11-23T07:36:26.726Z,99.90
2018-11-23T07:38:56.656Z,99.90
2018-11-23T07:41:38.405Z,99.90
2018-11-23T07:44:14.245Z,99.90
2018-11-23T07:46:44.940Z,99.90
2018-11-23T07:49:16.231Z,99.90
2018-11-23T07:51:45.999Z,99.90
2018-11-23T07:54:16.918Z,99.90
2018-11-23T07:56:47.342Z,99.90
2018-11-23T07:59:16.938Z,99.90
2018-11-23T08:01:47.048Z,99.90
2018-11-23T08:04:17.884Z,99.90
2018-11-23T08:06:47.424Z,99.90
2018-11-23T08:09:18.376Z,99.90
2018-11-23T08:11:50.179Z,99.90
2018-11-23T08:14:22.189Z,99.90
2018-11-23T08:16:51.800Z,99.90
2018-11-23T08:19:23.130Z,99.90
2018-11-23T08:21:54.679Z,99.90
2018-11-23T08:24:24.152Z,99.90
2018-11-23T08:26:54.890Z,99.90
2018-11-23T08:29:24.349Z,99.90
2018-11-23T08:31:54.046Z,99.90
2018-11-23T08:34:23.409Z,99.90
2018-11-23T08:36:53.053Z,99.90
2018-11-23T08:39:25.557Z,99.90
2018-11-23T08:41:56.371Z,99.90
2018-11-23T08:44:26.745Z,99.90
2018-11-23T08:46:56.667Z,99.90
2018-11-23T08:49:27.536Z,99.90
2018-11-23T08:52:01.805Z,99.90
2018-11-23T08:54:38.796Z,99.90
2018-11-23T08:57:08.783Z,99.90
2018-11-23T08:59:43.644Z,99.90
2018-11-23T09:02:13.781Z,99.90
2018-11-23T09:04:43.330Z,99.90
2018-11-23T09:07:12.950Z,99.90
2018-11-23T09:09:42.867Z,99.90
2018-11-23T09:12:14.383Z,99.90
2018-11-23T09:14:44.380Z,99.90
2018-11-23T09:17:13.918Z,99.90
2018-11-23T09:19:43.462Z,99.90
2018-11-23T09:22:13.094Z,99.90
2018-11-23T09:24:42.651Z,99.90
2018-11-23T09:27:12.100Z,99.90
2018-11-23T09:29:41.474Z,99.90
2018-11-23T09:32:11.296Z,99.90
2018-11-23T09:34:41.382Z,99.90
2018-11-23T09:37:11.295Z,99.90
2018-11-23T09:39:40.920Z,99.90
2018-11-23T09:42:11.092Z,99.90
2018-11-23T09:44:41.652Z,99.90
2018-11-23T09:47:15.306Z,99.90
2018-11-23T09:49:52.761Z,99.90
2018-11-23T09:52:22.945Z,99.90
2018-11-23T09:54:57.231Z,99.90
2018-11-23T09:57:26.794Z,99.90
2018-11-23T09:59:57.089Z,99.90
2018-11-23T10:02:26.821Z,99.90
2018-11-23T10:05:01.736Z,99.90
2018-11-23T10:07:31.649Z,99.90
2018-11-23T10:10:04.275Z,99.90
2018-11-23T10:12:35.692Z,99.90
2018-11-23T10:15:37.399Z,99.90
2018-11-23T10:18:13.208Z,99.90
2018-11-23T10:20:47.540Z,99.90
2018-11-23T10:23:16.878Z,99.90
2018-11-23T10:25:47.238Z,99.90
2018-11-23T10:28:17.508Z,99.90
2018-11-23T10:30:50.074Z,99.90
2018-11-23T10:33:22.864Z,99.90
2018-11-23T10:35:53.552Z,99.90
2018-11-23T10:38:25.218Z,99.90
2018-11-23T10:40:56.801Z,99.90
2018-11-23T10:43:26.281Z,99.90
2018-11-23T10:45:56.821Z,99.90
2018-11-23T10:48:27.826Z,99.90
2018-11-23T10:50:59.446Z,99.90
2018-11-23T10:53:31.360Z,99.90
2018-11-23T10:56:03.091Z,99.90
2018-11-23T10:58:36.817Z,99.90
2018-11-23T11:01:13.717Z,99.90
2018-11-23T11:04:01.726Z,99.90
2018-11-23T11:06:37.074Z,99.90
2018-11-23T11:09:15.894Z,99.90
2018-11-23T11:11:48.700Z,99.90
2018-11-23T11:14:19.335Z,99.90
2018-11-23T11:17:02.227Z,99.90
2018-11-23T11:19:33.640Z,99.90
2018-11-23T11:22:05.395Z,99.90
2018-11-23T11:24:43.196Z,99.90
2018-11-23T11:27:14.568Z,99.90
2018-11-23T11:29:46.201Z,99.90
2018-11-23T11:32:18.616Z,99.90
2018-11-23T11:34:48.723Z,99.90
2018-11-23T11:37:18.537Z,99.90
2018-11-23T11:39:49.172Z,99.90
2018-11-23T11:42:19.797Z,99.90
2018-11-23T11:44:50.120Z,99.90
2018-11-23T11:47:20.103Z,99.90
2018-11-23T11:49:50.054Z,99.90
2018-11-23T11:52:19.633Z,99.90
2018-11-23T11:54:49.129Z,99.90
2018-11-23T11:57:19.070Z,99.90
2018-11-23T11:59:50.558Z,99.90
2018-11-23T12:02:22.033Z,99.90
2018-11-23T12:04:52.448Z,99.90
2018-11-23T12:07:34.603Z,99.90
2018-11-23T12:10:04.253Z,99.90
2018-11-23T12:12:33.860Z,99.90
2018-11-23T12:15:04.163Z,99.90
2018-11-23T12:17:34.989Z,99.90
2018-11-23T12:20:06.306Z,99.90
2018-11-23T12:22:36.095Z,99.90
2018-11-23T12:25:06.344Z,99.90
2018-11-23T12:27:36.354Z,99.90
2018-11-23T12:30:10.728Z,99.90
2018-11-23T12:32:40.670Z,99.90
2018-11-23T12:35:11.678Z,99.90
2018-11-23T12:37:48.531Z,99.90
2018-11-23T12:40:20.971Z,99.90
2018-11-23T12:43:05.066Z,99.90
2018-11-23T12:45:43.681Z,99.90
2018-11-23T12:48:13.376Z,99.90
2018-11-23T12:50:46.264Z,99.90
2018-11-23T12:53:16.773Z,99.90
2018-11-23T12:55:46.805Z,99.90
2018-11-23T12:58:19.133Z,99.90
2018-11-23T13:00:49.646Z,99.90
2018-11-23T13:03:19.909Z,99.90
2018-11-23T13:06:05.952Z,97.80
2018-11-23T13:08:38.783Z,95.20
2018-11-23T13:11:09.745Z,92.60
2018-11-23T13:13:39.836Z,90.10
2018-11-23T13:16:10.375Z,86.80
2018-11-23T13:18:40.074Z,89.20
2018-11-23T13:21:10.371Z,91.00
2018-11-23T13:23:40.931Z,92.50
2018-11-23T13:26:10.557Z,92.60
2018-11-23T13:28:45.660Z,93.10
2018-11-23T13:31:16.420Z,92.90
2018-11-23T13:33:46.846Z,92.30
2018-11-23T13:36:16.551Z,92.10
2018-11-23T13:38:50.982Z,90.40
2018-11-23T13:41:21.922Z,87.40
2018-11-23T13:43:52.036Z,84.80
2018-11-23T13:46:26.944Z,85.70
2018-11-23T13:49:00.284Z,85.10
2018-11-23T13:51:31.604Z,85.30
2018-11-23T13:54:01.934Z,85.50
2018-11-23T13:56:32.059Z,85.60
2018-11-23T13:59:02.461Z,84.80
2018-11-23T14:01:38.144Z,81.70
2018-11-23T14:04:08.360Z,80.00
2018-11-23T14:06:38.433Z,82.50
2018-11-23T14:09:14.016Z,80.90
2018-11-23T14:11:44.597Z,83.70
2018-11-23T14:14:14.684Z,87.50
2018-11-23T14:16:46.741Z,90.20
2018-11-23T14:19:16.494Z,90.60
2018-11-23T14:21:48.312Z,91.90
2018-11-23T14:24:20.794Z,94.00
2018-11-23T14:26:51.792Z,95.80
2018-11-23T14:29:24.366Z,97.60
2018-11-23T14:32:05.795Z,98.70
2018-11-23T14:34:52.403Z,99.50
2018-11-23T14:37:31.911Z,99.90
2018-11-23T14:40:10.557Z,99.90
2018-11-23T14:42:41.482Z,99.90
2018-11-23T14:45:14.759Z,99.90
2018-11-23T14:47:58.180Z,99.90
2018-11-23T14:50:42.794Z,99.90
2018-11-23T14:53:14.048Z,99.90
2018-11-23T14:55:43.762Z,99.90
2018-11-23T14:58:13.454Z,99.90
2018-11-23T15:00:45.087Z,99.90
2018-11-23T15:03:22.246Z,99.90
2018-11-23T15:05:58.533Z,99.90
2018-11-23T15:08:29.423Z,99.90
2018-11-23T15:11:00.269Z,99.90
2018-11-23T15:13:33.874Z,99.90
2018-11-23T15:16:05.320Z,99.90
2018-11-23T15:18:37.287Z,99.90
2018-11-23T15:21:07.666Z,99.90
2018-11-23T15:23:38.350Z,99.90
2018-11-23T15:26:21.377Z,99.90
2018-11-23T15:29:01.337Z,99.90
2018-11-23T15:31:40.181Z,99.90
2018-11-23T15:34:18.865Z,99.90
2018-11-23T15:36:49.738Z,99.90
2018-11-23T15:39:20.888Z,99.90
2018-11-23T15:41:58.112Z,99.90
2018-11-23T15:44:30.579Z,99.90
2018-11-23T15:47:00.381Z,99.90
2018-11-23T15:49:29.822Z,99.90
2018-11-23T15:52:01.876Z,99.90
2018-11-23T15:54:34.317Z,99.90
2018-11-23T15:57:12.131Z,99.90
2018-11-23T15:59:43.421Z,99.90
2018-11-23T16:02:13.652Z,99.90
2018-11-23T16:04:45.943Z,99.90
2018-11-23T16:07:18.174Z,99.90
2018-11-23T16:09:50.433Z,99.90
2018-11-23T16:12:20.563Z,99.90
2018-11-23T16:14:51.135Z,99.90
2018-11-23T16:17:21.328Z,99.90
2018-11-23T16:19:50.934Z,99.90
2018-11-23T16:22:21.407Z,99.90
2018-11-23T16:24:52.190Z,99.90
2018-11-23T16:27:23.388Z,99.90
2018-11-23T16:29:55.465Z,99.90
2018-11-23T16:32:26.054Z,99.90
2018-11-23T16:34:56.724Z,99.90
2018-11-23T16:37:27.104Z,99.90
2018-11-23T16:39:56.813Z,99.90
2018-11-23T16:42:26.821Z,99.90
2018-11-23T16:45:02.128Z,99.90
2018-11-23T16:47:32.833Z,99.90
2018-11-23T16:50:04.312Z,99.90
2018-11-23T16:52:36.272Z,99.90
2018-11-23T16:55:09.058Z,99.90
2018-11-23T16:57:43.716Z,99.90
2018-11-23T17:00:20.274Z,99.90
2018-11-23T17:02:50.993Z,99.90
2018-11-23T17:05:31.339Z,99.90
2018-11-23T17:08:01.643Z,99.90
2018-11-23T17:10:32.107Z,99.90
2018-11-23T17:13:03.542Z,99.90
2018-11-23T17:15:33.906Z,99.90
2018-11-23T17:18:03.919Z,99.90
2018-11-23T17:20:35.588Z,99.90
2018-11-23T17:23:07.732Z,99.90
2018-11-23T17:25:38.068Z,99.90
2018-11-23T17:28:10.152Z,99.90
2018-11-23T17:30:46.583Z,99.90
2018-11-23T17:33:29.814Z,99.90
2018-11-23T17:36:27.045Z,99.90
2018-11-23T17:39:09.924Z,99.90
2018-11-23T17:41:55.263Z,99.90
2018-11-23T17:46:03.776Z,99.90
2018-11-23T17:48:36.660Z,99.90
2018-11-23T17:51:33.956Z,99.90
2018-11-23T17:54:19.087Z,99.90
2018-11-23T17:56:51.384Z,99.90
2018-11-23T17:59:21.415Z,99.90
2018-11-23T18:01:55.818Z,99.90
2018-11-23T18:04:29.812Z,99.90
2018-11-23T18:07:03.693Z,99.90
2018-11-23T18:09:44.420Z,99.90
2018-11-23T18:12:26.427Z,99.90
2018-11-23T18:14:56.360Z,99.90
2018-11-23T18:17:38.538Z,99.90
2018-11-23T18:20:29.861Z,99.90
2018-11-23T18:23:02.893Z,99.90
2018-11-23T18:25:37.468Z,99.90
2018-11-23T18:28:09.182Z,99.90
2018-11-23T18:30:41.002Z,99.90
2018-11-23T18:33:17.899Z,99.90
2018-11-23T18:36:04.953Z,99.90
2018-11-23T18:38:39.020Z,99.90
2018-11-23T18:41:10.183Z,99.90
2018-11-23T18:43:40.399Z,99.90
2018-11-23T18:46:09.996Z,99.90
2018-11-23T18:48:40.624Z,99.90
2018-11-23T18:51:11.241Z,99.90
2018-11-23T18:53:48.469Z,99.90
2018-11-23T18:56:26.857Z,99.90
2018-11-23T18:58:59.296Z,99.90
2018-11-23T19:01:33.074Z,99.90
2018-11-23T19:04:07.412Z,99.90
2018-11-23T19:06:45.418Z,99.90
2018-11-23T19:09:36.553Z,99.90
2018-11-23T19:12:24.575Z,99.90
2018-11-23T19:15:04.409Z,99.90
2018-11-23T19:17:40.555Z,99.90
2018-11-23T19:20:28.741Z,99.90
2018-11-23T19:23:14.897Z,99.90
2018-11-23T19:25:47.125Z,99.90
2018-11-23T19:28:18.154Z,99.90
2018-11-23T19:30:50.521Z,99.90
2018-11-23T19:33:21.068Z,99.90
2018-11-23T19:35:50.694Z,99.90
2018-11-23T19:38:23.476Z,99.90
2018-11-23T19:41:10.934Z,99.90
2018-11-23T19:43:52.115Z,99.90
2018-11-23T19:46:38.186Z,99.90
2018-11-23T19:49:32.408Z,99.90
2018-11-23T19:52:17.030Z,99.90
2018-11-23T19:54:47.692Z,99.90
2018-11-23T19:57:19.144Z,99.90
2018-11-23T20:00:00.689Z,99.90
2018-11-23T20:02:44.170Z,99.90
2018-11-23T20:05:23.841Z,99.90
2018-11-23T20:08:14.152Z,99.90
2018-11-23T20:11:23.361Z,99.90
2018-11-23T20:13:57.039Z,99.90
2018-11-23T20:16:44.468Z,99.90
2018-11-23T20:19:43.869Z,99.90
2018-11-23T20:22:23.216Z,99.90
2018-11-23T20:25:03.239Z,99.90
2018-11-23T20:27:46.623Z,99.90
2018-11-23T20:33:06.384Z,99.90
2018-11-23T20:35:39.381Z,99.90
2018-11-23T20:38:20.880Z,99.90
2018-11-23T20:41:03.980Z,99.90
2018-11-23T20:46:18.514Z,99.90
2018-11-23T20:48:55.712Z,99.90
2018-11-23T20:52:20.113Z,99.90
2018-11-23T20:54:51.827Z,99.90
2018-11-23T20:57:43.514Z,99.90
2018-11-23T21:05:19.930Z,99.90
2018-11-23T21:08:08.260Z,99.90
2018-11-23T21:10:50.395Z,99.90
2018-11-23T21:13:25.770Z,99.90
2018-11-23T21:15:58.210Z,99.90
2018-11-23T21:18:29.506Z,99.90
2018-11-23T21:20:59.567Z,99.90
2018-11-23T21:23:36.893Z,99.90
2018-11-23T21:26:22.472Z,99.90
2018-11-23T21:28:55.845Z,99.90
2018-11-23T21:31:27.630Z,99.90
2018-11-23T21:34:39.016Z,99.90
2018-11-23T21:41:14.492Z,99.90
2018-11-23T21:43:56.227Z,99.90
2018-11-23T21:46:29.856Z,99.90
2018-11-23T21:49:15.083Z,99.90
2018-11-23T21:51:54.226Z,99.90
2018-11-23T21:54:29.752Z,99.90
2018-11-23T21:57:03.784Z,99.90
2018-11-23T21:59:34.026Z,99.90
2018-11-23T22:02:07.192Z,99.90
2018-11-23T22:04:35.641Z,99.90
2018-11-23T22:07:13.707Z,99.90
2018-11-23T22:09:54.623Z,99.90
2018-11-23T22:12:34.178Z,99.90
2018-11-23T22:15:11.795Z,99.90
2018-11-23T22:20:57.083Z,99.90
2018-11-23T22:31:16.662Z,99.90
2018-11-23T22:40:36.695Z,99.90
2018-11-23T22:43:20.651Z,99.90
2018-11-23T22:45:57.112Z,99.90
2018-11-23T22:48:28.136Z,99.90
2018-11-23T22:51:13.386Z,99.90
2018-11-23T22:54:07.432Z,99.90
2018-11-23T22:56:46.474Z,99.90
2018-11-23T22:59:36.795Z,99.90
2018-11-23T23:02:34.674Z,99.90
2018-11-23T23:05:13.533Z,99.90
2018-11-23T23:08:05.747Z,99.90
2018-11-23T23:13:19.586Z,99.90
2018-11-23T23:15:54.759Z,99.90
2018-11-23T23:18:30.290Z,99.90
2018-11-23T23:21:00.544Z,99.90
2018-11-23T23:23:31.447Z,99.90
2018-11-23T23:26:01.448Z,99.90
2018-11-23T23:28:38.480Z,99.90
2018-11-23T23:31:15.191Z,99.90
2018-11-23T23:34:06.457Z,99.90
2018-11-23T23:37:09.102Z,99.90
2018-11-23T23:39:41.682Z,99.90
2018-11-23T23:42:11.134Z,99.90
2018-11-23T23:44:42.737Z,99.90
2018-11-23T23:47:12.759Z,99.90
2018-11-23T23:49:43.282Z,99.90
2018-11-23T23:52:14.585Z,99.90
2018-11-23T23:54:48.573Z,99.90
2018-11-23T23:57:20.936Z,99.90
2018-11-23T23:59:50.741Z,99.90
